sensor_id;sensor_type;location;lat;lon;timestamp;P1;durP1;ratioP1;P2;durP2;ratioP2
16784;SDS011;8509;52.178;5.404;2023-11-21T00:02:07;9.23;;;5.28;;
16784;SDS011;8509;52.178;5.404;2023-11-21T00:04:32;8.73;;;4.25;;
16784;SDS011;8509;52.178;5.404;2023-11-21T00:06:58;7.30;;;3.88;;
16784;SDS011;8509;52.178;5.404;2023-11-21T00:09:23;12.13;;;4.28;;
16784;SDS011;8509;52.178;5.404;2023-11-21T00:11:49;7.78;;;4.70;;
16784;SDS011;8509;52.178;5.404;2023-11-21T00:14:15;12.40;;;5.72;;
16784;SDS011;8509;52.178;5.404;2023-11-21T00:16:41;10.55;;;4.78;;
16784;SDS011;8509;52.178;5.404;2023-11-21T00:19:06;9.98;;;3.92;;
16784;SDS011;8509;52.178;5.404;2023-11-21T00:21:32;14.52;;;4.55;;
16784;SDS011;8509;52.178;5.404;2023-11-21T00:23:58;11.27;;;5.03;;
16784;SDS011;8509;52.178;5.404;2023-11-21T00:26:23;10.90;;;5.53;;
16784;SDS011;8509;52.178;5.404;2023-11-21T00:28:49;8.35;;;3.85;;
16784;SDS011;8509;52.178;5.404;2023-11-21T00:31:15;9.73;;;4.25;;
16784;SDS011;8509;52.178;5.404;2023-11-21T00:33:41;12.38;;;4.68;;
16784;SDS011;8509;52.178;5.404;2023-11-21T00:36:07;10.65;;;5.63;;
16784;SDS011;8509;52.178;5.404;2023-11-21T00:38:35;8.10;;;4.43;;
16784;SDS011;8509;52.178;5.404;2023-11-21T00:41:01;14.45;;;4.90;;
16784;SDS011;8509;52.178;5.404;2023-11-21T00:43:27;7.93;;;4.45;;
16784;SDS011;8509;52.178;5.404;2023-11-21T00:45:53;10.00;;;5.20;;
16784;SDS011;8509;52.178;5.404;2023-11-21T00:48:19;10.23;;;5.28;;
16784;SDS011;8509;52.178;5.404;2023-11-21T00:50:45;12.82;;;4.57;;
16784;SDS011;8509;52.178;5.404;2023-11-21T00:53:10;13.82;;;5.55;;
16784;SDS011;8509;52.178;5.404;2023-11-21T00:55:36;7.93;;;3.17;;
16784;SDS011;8509;52.178;5.404;2023-11-21T00:58:05;13.85;;;5.38;;
16784;SDS011;8509;52.178;5.404;2023-11-21T01:00:36;10.70;;;4.28;;
16784;SDS011;8509;52.178;5.404;2023-11-21T01:03:04;9.48;;;4.35;;
16784;SDS011;8509;52.178;5.404;2023-11-21T01:05:30;8.60;;;4.03;;
16784;SDS011;8509;52.178;5.404;2023-11-21T01:07:56;11.95;;;4.70;;
16784;SDS011;8509;52.178;5.404;2023-11-21T01:10:21;16.00;;;5.53;;
16784;SDS011;8509;52.178;5.404;2023-11-21T01:12:47;14.80;;;4.22;;
16784;SDS011;8509;52.178;5.404;2023-11-21T01:15:14;9.57;;;5.18;;
16784;SDS011;8509;52.178;5.404;2023-11-21T01:17:40;16.45;;;4.47;;
16784;SDS011;8509;52.178;5.404;2023-11-21T01:20:06;9.90;;;4.25;;
16784;SDS011;8509;52.178;5.404;2023-11-21T01:22:36;9.05;;;4.32;;
16784;SDS011;8509;52.178;5.404;2023-11-21T01:25:02;7.35;;;3.95;;
16784;SDS011;8509;52.178;5.404;2023-11-21T01:27:30;6.65;;;4.63;;
16784;SDS011;8509;52.178;5.404;2023-11-21T01:29:56;6.70;;;3.75;;
16784;SDS011;8509;52.178;5.404;2023-11-21T01:32:21;7.03;;;4.53;;
16784;SDS011;8509;52.178;5.404;2023-11-21T01:34:47;13.10;;;4.60;;
16784;SDS011;8509;52.178;5.404;2023-11-21T01:37:15;11.55;;;4.65;;
16784;SDS011;8509;52.178;5.404;2023-11-21T01:39:42;11.35;;;4.78;;
16784;SDS011;8509;52.178;5.404;2023-11-21T01:42:09;8.35;;;4.40;;
16784;SDS011;8509;52.178;5.404;2023-11-21T01:44:34;11.65;;;4.28;;
16784;SDS011;8509;52.178;5.404;2023-11-21T01:47:01;10.75;;;4.15;;
16784;SDS011;8509;52.178;5.404;2023-11-21T01:49:30;9.23;;;4.50;;
16784;SDS011;8509;52.178;5.404;2023-11-21T01:52:00;9.55;;;3.70;;
16784;SDS011;8509;52.178;5.404;2023-11-21T01:54:26;12.57;;;5.20;;
16784;SDS011;8509;52.178;5.404;2023-11-21T01:56:56;9.20;;;4.18;;
16784;SDS011;8509;52.178;5.404;2023-11-21T01:59:27;8.57;;;4.40;;
16784;SDS011;8509;52.178;5.404;2023-11-21T02:02:01;8.48;;;3.75;;
16784;SDS011;8509;52.178;5.404;2023-11-21T02:04:34;8.63;;;3.70;;
16784;SDS011;8509;52.178;5.404;2023-11-21T02:07:01;5.18;;;3.70;;
16784;SDS011;8509;52.178;5.404;2023-11-21T02:09:30;12.20;;;4.80;;
16784;SDS011;8509;52.178;5.404;2023-11-21T02:11:56;6.95;;;3.88;;
16784;SDS011;8509;52.178;5.404;2023-11-21T02:14:24;12.68;;;3.58;;
16784;SDS011;8509;52.178;5.404;2023-11-21T02:16:51;7.07;;;3.92;;
16784;SDS011;8509;52.178;5.404;2023-11-21T02:19:19;7.40;;;3.60;;
16784;SDS011;8509;52.178;5.404;2023-11-21T02:21:47;7.35;;;3.75;;
16784;SDS011;8509;52.178;5.404;2023-11-21T02:24:21;9.25;;;3.42;;
16784;SDS011;8509;52.178;5.404;2023-11-21T02:26:48;8.85;;;3.60;;
16784;SDS011;8509;52.178;5.404;2023-11-21T02:29:16;5.55;;;2.80;;
16784;SDS011;8509;52.178;5.404;2023-11-21T02:31:43;7.65;;;3.72;;
16784;SDS011;8509;52.178;5.404;2023-11-21T02:34:15;12.38;;;3.70;;
16784;SDS011;8509;52.178;5.404;2023-11-21T02:36:41;7.40;;;2.97;;
16784;SDS011;8509;52.178;5.404;2023-11-21T02:39:08;12.63;;;2.97;;
16784;SDS011;8509;52.178;5.404;2023-11-21T02:41:34;7.53;;;3.58;;
16784;SDS011;8509;52.178;5.404;2023-11-21T02:44:02;7.18;;;3.97;;
16784;SDS011;8509;52.178;5.404;2023-11-21T02:46:28;4.75;;;2.47;;
16784;SDS011;8509;52.178;5.404;2023-11-21T02:48:54;8.02;;;3.13;;
16784;SDS011;8509;52.178;5.404;2023-11-21T02:51:19;6.78;;;3.17;;
16784;SDS011;8509;52.178;5.404;2023-11-21T02:53:45;8.73;;;3.85;;
16784;SDS011;8509;52.178;5.404;2023-11-21T02:56:12;6.75;;;3.08;;
16784;SDS011;8509;52.178;5.404;2023-11-21T02:58:40;4.00;;;2.30;;
16784;SDS011;8509;52.178;5.404;2023-11-21T03:01:12;5.40;;;2.63;;
16784;SDS011;8509;52.178;5.404;2023-11-21T03:03:38;8.93;;;3.13;;
16784;SDS011;8509;52.178;5.404;2023-11-21T03:06:07;8.90;;;3.83;;
16784;SDS011;8509;52.178;5.404;2023-11-21T03:08:33;8.75;;;3.00;;
16784;SDS011;8509;52.178;5.404;2023-11-21T03:11:02;8.02;;;3.78;;
16784;SDS011;8509;52.178;5.404;2023-11-21T03:13:28;7.07;;;3.17;;
16784;SDS011;8509;52.178;5.404;2023-11-21T03:15:54;7.97;;;2.35;;
16784;SDS011;8509;52.178;5.404;2023-11-21T03:18:20;5.85;;;3.15;;
16784;SDS011;8509;52.178;5.404;2023-11-21T03:20:47;4.32;;;2.75;;
16784;SDS011;8509;52.178;5.404;2023-11-21T03:23:12;10.73;;;2.13;;
16784;SDS011;8509;52.178;5.404;2023-11-21T03:25:38;5.85;;;2.60;;
16784;SDS011;8509;52.178;5.404;2023-11-21T03:28:04;4.75;;;2.35;;
16784;SDS011;8509;52.178;5.404;2023-11-21T03:30:30;5.30;;;2.78;;
16784;SDS011;8509;52.178;5.404;2023-11-21T03:32:55;4.50;;;3.08;;
16784;SDS011;8509;52.178;5.404;2023-11-21T03:35:21;3.70;;;3.10;;
16784;SDS011;8509;52.178;5.404;2023-11-21T03:37:48;8.18;;;2.83;;
16784;SDS011;8509;52.178;5.404;2023-11-21T03:40:14;3.67;;;2.28;;
16784;SDS011;8509;52.178;5.404;2023-11-21T03:42:39;4.88;;;2.90;;
16784;SDS011;8509;52.178;5.404;2023-11-21T03:45:06;14.80;;;3.38;;
16784;SDS011;8509;52.178;5.404;2023-11-21T03:47:32;9.45;;;3.22;;
16784;SDS011;8509;52.178;5.404;2023-11-21T03:49:58;7.32;;;2.50;;
16784;SDS011;8509;52.178;5.404;2023-11-21T03:52:24;4.70;;;2.65;;
16784;SDS011;8509;52.178;5.404;2023-11-21T03:54:50;7.10;;;2.97;;
16784;SDS011;8509;52.178;5.404;2023-11-21T03:57:15;4.28;;;3.45;;
16784;SDS011;8509;52.178;5.404;2023-11-21T03:59:41;6.25;;;2.90;;
16784;SDS011;8509;52.178;5.404;2023-11-21T04:02:08;8.55;;;2.70;;
16784;SDS011;8509;52.178;5.404;2023-11-21T04:04:34;5.05;;;2.55;;
16784;SDS011;8509;52.178;5.404;2023-11-21T04:07:00;5.47;;;2.75;;
16784;SDS011;8509;52.178;5.404;2023-11-21T04:09:26;8.02;;;3.33;;
16784;SDS011;8509;52.178;5.404;2023-11-21T04:11:55;5.38;;;3.30;;
16784;SDS011;8509;52.178;5.404;2023-11-21T04:14:20;16.30;;;2.88;;
16784;SDS011;8509;52.178;5.404;2023-11-21T04:16:47;7.50;;;3.90;;
16784;SDS011;8509;52.178;5.404;2023-11-21T04:19:13;6.60;;;2.95;;
16784;SDS011;8509;52.178;5.404;2023-11-21T04:21:42;12.25;;;3.05;;
16784;SDS011;8509;52.178;5.404;2023-11-21T04:24:08;6.50;;;2.92;;
16784;SDS011;8509;52.178;5.404;2023-11-21T04:26:34;9.88;;;3.17;;
16784;SDS011;8509;52.178;5.404;2023-11-21T04:29:00;6.18;;;2.92;;
16784;SDS011;8509;52.178;5.404;2023-11-21T04:31:25;8.55;;;2.60;;
16784;SDS011;8509;52.178;5.404;2023-11-21T04:33:51;9.90;;;3.42;;
16784;SDS011;8509;52.178;5.404;2023-11-21T04:36:17;5.85;;;3.40;;
16784;SDS011;8509;52.178;5.404;2023-11-21T04:38:42;7.18;;;3.50;;
16784;SDS011;8509;52.178;5.404;2023-11-21T04:41:09;5.35;;;2.50;;
16784;SDS011;8509;52.178;5.404;2023-11-21T04:43:34;10.60;;;4.35;;
16784;SDS011;8509;52.178;5.404;2023-11-21T04:46:00;10.25;;;3.92;;
16784;SDS011;8509;52.178;5.404;2023-11-21T04:48:27;9.57;;;3.50;;
16784;SDS011;8509;52.178;5.404;2023-11-21T04:50:52;9.43;;;3.70;;
16784;SDS011;8509;52.178;5.404;2023-11-21T04:53:18;13.93;;;3.83;;
16784;SDS011;8509;52.178;5.404;2023-11-21T04:55:44;9.90;;;3.58;;
16784;SDS011;8509;52.178;5.404;2023-11-21T04:58:10;5.50;;;3.83;;
16784;SDS011;8509;52.178;5.404;2023-11-21T05:00:37;12.00;;;4.65;;
16784;SDS011;8509;52.178;5.404;2023-11-21T05:03:03;10.75;;;3.95;;
16784;SDS011;8509;52.178;5.404;2023-11-21T05:05:29;10.00;;;3.63;;
16784;SDS011;8509;52.178;5.404;2023-11-21T05:07:55;8.30;;;4.28;;
16784;SDS011;8509;52.178;5.404;2023-11-21T05:10:21;8.27;;;3.78;;
16784;SDS011;8509;52.178;5.404;2023-11-21T05:12:47;8.75;;;3.80;;
16784;SDS011;8509;52.178;5.404;2023-11-21T05:15:15;6.82;;;4.60;;
16784;SDS011;8509;52.178;5.404;2023-11-21T05:17:42;10.15;;;4.15;;
16784;SDS011;8509;52.178;5.404;2023-11-21T05:20:15;11.98;;;4.63;;
16784;SDS011;8509;52.178;5.404;2023-11-21T05:22:47;6.20;;;3.30;;
16784;SDS011;8509;52.178;5.404;2023-11-21T05:25:16;6.85;;;3.40;;
16784;SDS011;8509;52.178;5.404;2023-11-21T05:27:43;6.45;;;3.70;;
16784;SDS011;8509;52.178;5.404;2023-11-21T05:30:10;10.77;;;3.72;;
16784;SDS011;8509;52.178;5.404;2023-11-21T05:32:37;14.25;;;5.13;;
16784;SDS011;8509;52.178;5.404;2023-11-21T05:35:03;7.35;;;3.92;;
16784;SDS011;8509;52.178;5.404;2023-11-21T05:37:34;8.37;;;4.57;;
16784;SDS011;8509;52.178;5.404;2023-11-21T05:40:01;9.65;;;3.90;;
16784;SDS011;8509;52.178;5.404;2023-11-21T05:42:31;8.68;;;4.07;;
16784;SDS011;8509;52.178;5.404;2023-11-21T05:44:57;9.10;;;5.00;;
16784;SDS011;8509;52.178;5.404;2023-11-21T05:47:24;6.57;;;3.65;;
16784;SDS011;8509;52.178;5.404;2023-11-21T05:49:53;8.82;;;4.10;;
16784;SDS011;8509;52.178;5.404;2023-11-21T05:52:19;7.13;;;3.38;;
16784;SDS011;8509;52.178;5.404;2023-11-21T05:54:45;7.28;;;3.88;;
16784;SDS011;8509;52.178;5.404;2023-11-21T05:57:11;5.95;;;3.30;;
16784;SDS011;8509;52.178;5.404;2023-11-21T05:59:36;11.98;;;4.32;;
16784;SDS011;8509;52.178;5.404;2023-11-21T06:02:02;18.33;;;4.60;;
16784;SDS011;8509;52.178;5.404;2023-11-21T06:04:28;9.05;;;3.67;;
16784;SDS011;8509;52.178;5.404;2023-11-21T06:06:54;15.48;;;4.40;;
16784;SDS011;8509;52.178;5.404;2023-11-21T06:09:19;12.88;;;3.85;;
16784;SDS011;8509;52.178;5.404;2023-11-21T06:11:45;8.07;;;3.72;;
16784;SDS011;8509;52.178;5.404;2023-11-21T06:14:11;5.18;;;3.65;;
16784;SDS011;8509;52.178;5.404;2023-11-21T06:16:37;11.85;;;3.63;;
16784;SDS011;8509;52.178;5.404;2023-11-21T06:19:02;11.07;;;4.05;;
16784;SDS011;8509;52.178;5.404;2023-11-21T06:21:28;8.90;;;3.03;;
16784;SDS011;8509;52.178;5.404;2023-11-21T06:23:54;7.43;;;3.25;;
16784;SDS011;8509;52.178;5.404;2023-11-21T06:26:22;7.65;;;4.15;;
16784;SDS011;8509;52.178;5.404;2023-11-21T06:28:47;6.30;;;2.95;;
16784;SDS011;8509;52.178;5.404;2023-11-21T06:31:16;13.55;;;4.70;;
16784;SDS011;8509;52.178;5.404;2023-11-21T06:33:42;12.65;;;4.70;;
16784;SDS011;8509;52.178;5.404;2023-11-21T06:36:08;5.90;;;3.58;;
16784;SDS011;8509;52.178;5.404;2023-11-21T06:38:36;19.92;;;3.97;;
16784;SDS011;8509;52.178;5.404;2023-11-21T06:41:02;9.80;;;4.00;;
16784;SDS011;8509;52.178;5.404;2023-11-21T06:43:29;6.85;;;3.88;;
16784;SDS011;8509;52.178;5.404;2023-11-21T06:45:56;10.45;;;3.17;;
16784;SDS011;8509;52.178;5.404;2023-11-21T06:48:22;15.82;;;3.42;;
16784;SDS011;8509;52.178;5.404;2023-11-21T06:50:48;6.40;;;3.45;;
16784;SDS011;8509;52.178;5.404;2023-11-21T06:53:14;6.38;;;3.88;;
16784;SDS011;8509;52.178;5.404;2023-11-21T06:55:40;11.10;;;3.70;;
16784;SDS011;8509;52.178;5.404;2023-11-21T06:58:05;11.20;;;3.90;;
16784;SDS011;8509;52.178;5.404;2023-11-21T07:00:31;6.28;;;3.67;;
16784;SDS011;8509;52.178;5.404;2023-11-21T07:02:56;7.93;;;3.15;;
16784;SDS011;8509;52.178;5.404;2023-11-21T07:05:22;5.68;;;2.30;;
16784;SDS011;8509;52.178;5.404;2023-11-21T07:07:48;7.72;;;4.13;;
16784;SDS011;8509;52.178;5.404;2023-11-21T07:10:14;8.43;;;3.85;;
16784;SDS011;8509;52.178;5.404;2023-11-21T07:12:40;6.72;;;3.80;;
16784;SDS011;8509;52.178;5.404;2023-11-21T07:15:07;6.35;;;2.83;;
16784;SDS011;8509;52.178;5.404;2023-11-21T07:17:36;11.77;;;3.15;;
16784;SDS011;8509;52.178;5.404;2023-11-21T07:20:02;9.68;;;4.00;;
16784;SDS011;8509;52.178;5.404;2023-11-21T07:22:29;5.13;;;2.95;;
16784;SDS011;8509;52.178;5.404;2023-11-21T07:24:55;6.63;;;2.80;;
16784;SDS011;8509;52.178;5.404;2023-11-21T07:27:23;15.38;;;3.60;;
16784;SDS011;8509;52.178;5.404;2023-11-21T07:29:49;6.05;;;3.15;;
16784;SDS011;8509;52.178;5.404;2023-11-21T07:32:15;8.13;;;2.42;;
16784;SDS011;8509;52.178;5.404;2023-11-21T07:34:41;4.43;;;2.72;;
16784;SDS011;8509;52.178;5.404;2023-11-21T07:37:07;8.77;;;2.50;;
16784;SDS011;8509;52.178;5.404;2023-11-21T07:39:34;8.15;;;2.38;;
16784;SDS011;8509;52.178;5.404;2023-11-21T07:42:01;5.38;;;2.50;;
16784;SDS011;8509;52.178;5.404;2023-11-21T07:44:27;4.65;;;2.00;;
16784;SDS011;8509;52.178;5.404;2023-11-21T07:46:53;7.05;;;2.30;;
16784;SDS011;8509;52.178;5.404;2023-11-21T07:49:22;4.53;;;2.42;;
16784;SDS011;8509;52.178;5.404;2023-11-21T07:51:48;3.65;;;1.80;;
16784;SDS011;8509;52.178;5.404;2023-11-21T07:54:14;10.93;;;2.35;;
16784;SDS011;8509;52.178;5.404;2023-11-21T07:56:40;4.55;;;2.22;;
16784;SDS011;8509;52.178;5.404;2023-11-21T07:59:06;9.75;;;2.03;;
16784;SDS011;8509;52.178;5.404;2023-11-21T08:01:32;7.75;;;3.33;;
16784;SDS011;8509;52.178;5.404;2023-11-21T08:03:58;6.18;;;1.80;;
16784;SDS011;8509;52.178;5.404;2023-11-21T08:06:28;4.00;;;1.98;;
16784;SDS011;8509;52.178;5.404;2023-11-21T08:08:55;6.07;;;2.25;;
16784;SDS011;8509;52.178;5.404;2023-11-21T08:11:21;5.72;;;2.38;;
16784;SDS011;8509;52.178;5.404;2023-11-21T08:13:47;8.88;;;2.42;;
16784;SDS011;8509;52.178;5.404;2023-11-21T08:16:13;5.75;;;2.53;;
16784;SDS011;8509;52.178;5.404;2023-11-21T08:18:39;3.85;;;1.50;;
16784;SDS011;8509;52.178;5.404;2023-11-21T08:21:06;3.13;;;1.55;;
16784;SDS011;8509;52.178;5.404;2023-11-21T08:23:33;3.35;;;1.70;;
16784;SDS011;8509;52.178;5.404;2023-11-21T08:25:59;2.95;;;1.55;;
16784;SDS011;8509;52.178;5.404;2023-11-21T08:28:25;5.50;;;2.70;;
16784;SDS011;8509;52.178;5.404;2023-11-21T08:30:53;4.18;;;1.60;;
16784;SDS011;8509;52.178;5.404;2023-11-21T08:33:21;3.13;;;1.85;;
16784;SDS011;8509;52.178;5.404;2023-11-21T08:35:47;8.18;;;2.08;;
16784;SDS011;8509;52.178;5.404;2023-11-21T08:38:13;4.47;;;3.00;;
16784;SDS011;8509;52.178;5.404;2023-11-21T08:40:39;5.53;;;2.05;;
16784;SDS011;8509;52.178;5.404;2023-11-21T08:43:04;3.15;;;2.40;;
16784;SDS011;8509;52.178;5.404;2023-11-21T08:45:48;4.82;;;2.75;;
16784;SDS011;8509;52.178;5.404;2023-11-21T08:48:16;4.55;;;2.15;;
16784;SDS011;8509;52.178;5.404;2023-11-21T08:50:51;6.30;;;2.30;;
16784;SDS011;8509;52.178;5.404;2023-11-21T08:53:18;10.30;;;3.42;;
16784;SDS011;8509;52.178;5.404;2023-11-21T08:55:43;5.70;;;2.80;;
16784;SDS011;8509;52.178;5.404;2023-11-21T08:58:09;9.80;;;3.33;;
16784;SDS011;8509;52.178;5.404;2023-11-21T09:00:42;6.75;;;3.10;;
16784;SDS011;8509;52.178;5.404;2023-11-21T09:03:12;8.00;;;3.30;;
16784;SDS011;8509;52.178;5.404;2023-11-21T09:05:38;13.43;;;3.80;;
16784;SDS011;8509;52.178;5.404;2023-11-21T09:08:05;9.32;;;3.80;;
16784;SDS011;8509;52.178;5.404;2023-11-21T09:10:32;10.35;;;4.22;;
16784;SDS011;8509;52.178;5.404;2023-11-21T09:13:00;9.40;;;2.63;;
16784;SDS011;8509;52.178;5.404;2023-11-21T09:15:27;9.18;;;4.00;;
16784;SDS011;8509;52.178;5.404;2023-11-21T09:17:52;12.13;;;4.30;;
16784;SDS011;8509;52.178;5.404;2023-11-21T09:20:18;13.27;;;4.82;;
16784;SDS011;8509;52.178;5.404;2023-11-21T09:22:47;9.55;;;5.07;;
16784;SDS011;8509;52.178;5.404;2023-11-21T09:25:16;8.80;;;4.55;;
16784;SDS011;8509;52.178;5.404;2023-11-21T09:27:44;8.30;;;3.83;;
16784;SDS011;8509;52.178;5.404;2023-11-21T09:30:11;7.85;;;3.80;;
16784;SDS011;8509;52.178;5.404;2023-11-21T09:32:39;7.82;;;4.03;;
16784;SDS011;8509;52.178;5.404;2023-11-21T09:35:05;8.75;;;4.22;;
16784;SDS011;8509;52.178;5.404;2023-11-21T09:37:33;9.70;;;3.50;;
16784;SDS011;8509;52.178;5.404;2023-11-21T09:39:59;9.40;;;3.97;;
16784;SDS011;8509;52.178;5.404;2023-11-21T09:42:49;5.15;;;2.75;;
16784;SDS011;8509;52.178;5.404;2023-11-21T09:47:59;6.22;;;3.03;;
16784;SDS011;8509;52.178;5.404;2023-11-21T09:50:26;11.32;;;3.75;;
16784;SDS011;8509;52.178;5.404;2023-11-21T09:55:27;8.98;;;3.38;;
16784;SDS011;8509;52.178;5.404;2023-11-21T09:58:00;10.88;;;3.22;;
16784;SDS011;8509;52.178;5.404;2023-11-21T10:00:27;11.43;;;4.20;;
16784;SDS011;8509;52.178;5.404;2023-11-21T10:02:57;5.68;;;3.00;;
16784;SDS011;8509;52.178;5.404;2023-11-21T10:05:24;9.25;;;3.20;;
16784;SDS011;8509;52.178;5.404;2023-11-21T10:07:50;5.70;;;2.92;;
16784;SDS011;8509;52.178;5.404;2023-11-21T10:10:18;8.30;;;3.10;;
16784;SDS011;8509;52.178;5.404;2023-11-21T10:12:47;6.78;;;2.78;;
16784;SDS011;8509;52.178;5.404;2023-11-21T10:17:46;9.60;;;3.10;;
16784;SDS011;8509;52.178;5.404;2023-11-21T10:20:18;5.05;;;3.05;;
16784;SDS011;8509;52.178;5.404;2023-11-21T10:22:45;5.15;;;2.72;;
16784;SDS011;8509;52.178;5.404;2023-11-21T10:25:10;6.35;;;2.35;;
16784;SDS011;8509;52.178;5.404;2023-11-21T10:27:39;7.60;;;3.03;;
16784;SDS011;8509;52.178;5.404;2023-11-21T10:30:06;8.10;;;2.60;;
16784;SDS011;8509;52.178;5.404;2023-11-21T10:32:41;6.57;;;2.72;;
16784;SDS011;8509;52.178;5.404;2023-11-21T10:35:08;9.98;;;3.92;;
16784;SDS011;8509;52.178;5.404;2023-11-21T10:37:37;5.63;;;2.85;;
16784;SDS011;8509;52.178;5.404;2023-11-21T10:40:08;6.47;;;3.17;;
16784;SDS011;8509;52.178;5.404;2023-11-21T10:42:37;9.15;;;3.72;;
16784;SDS011;8509;52.178;5.404;2023-11-21T10:45:04;6.32;;;2.78;;
16784;SDS011;8509;52.178;5.404;2023-11-21T10:47:38;9.55;;;4.13;;
16784;SDS011;8509;52.178;5.404;2023-11-21T10:50:07;9.63;;;3.58;;
16784;SDS011;8509;52.178;5.404;2023-11-21T10:52:36;8.68;;;3.20;;
16784;SDS011;8509;52.178;5.404;2023-11-21T10:55:15;7.88;;;3.75;;
16784;SDS011;8509;52.178;5.404;2023-11-21T10:57:51;9.00;;;3.90;;
16784;SDS011;8509;52.178;5.404;2023-11-21T11:00:18;8.80;;;4.25;;
16784;SDS011;8509;52.178;5.404;2023-11-21T11:02:51;12.70;;;5.15;;
16784;SDS011;8509;52.178;5.404;2023-11-21T11:05:21;12.57;;;4.85;;
16784;SDS011;8509;52.178;5.404;2023-11-21T11:08:03;7.97;;;3.67;;
16784;SDS011;8509;52.178;5.404;2023-11-21T11:10:30;10.90;;;4.05;;
16784;SDS011;8509;52.178;5.404;2023-11-21T11:12:57;8.45;;;3.90;;
16784;SDS011;8509;52.178;5.404;2023-11-21T11:15:24;10.23;;;3.85;;
16784;SDS011;8509;52.178;5.404;2023-11-21T11:17:51;8.55;;;4.10;;
16784;SDS011;8509;52.178;5.404;2023-11-21T11:20:17;8.50;;;3.40;;
16784;SDS011;8509;52.178;5.404;2023-11-21T11:28:35;7.65;;;3.60;;
16784;SDS011;8509;52.178;5.404;2023-11-21T11:33:59;6.72;;;4.22;;
16784;SDS011;8509;52.178;5.404;2023-11-21T11:36:48;10.30;;;4.57;;
16784;SDS011;8509;52.178;5.404;2023-11-21T11:39:28;9.02;;;4.03;;
16784;SDS011;8509;52.178;5.404;2023-11-21T11:42:01;11.52;;;4.85;;
16784;SDS011;8509;52.178;5.404;2023-11-21T11:47:14;7.88;;;3.92;;
16784;SDS011;8509;52.178;5.404;2023-11-21T11:52:47;10.68;;;3.80;;
16784;SDS011;8509;52.178;5.404;2023-11-21T11:55:17;12.48;;;5.78;;
16784;SDS011;8509;52.178;5.404;2023-11-21T11:57:48;10.85;;;4.57;;
16784;SDS011;8509;52.178;5.404;2023-11-21T12:02:54;11.38;;;6.47;;
16784;SDS011;8509;52.178;5.404;2023-11-21T12:05:40;10.55;;;5.13;;
16784;SDS011;8509;52.178;5.404;2023-11-21T12:08:08;10.15;;;5.05;;
16784;SDS011;8509;52.178;5.404;2023-11-21T12:10:38;19.60;;;5.68;;
16784;SDS011;8509;52.178;5.404;2023-11-21T12:13:08;9.27;;;5.00;;
16784;SDS011;8509;52.178;5.404;2023-11-21T12:15:37;10.13;;;4.22;;
16784;SDS011;8509;52.178;5.404;2023-11-21T12:18:04;11.65;;;4.65;;
16784;SDS011;8509;52.178;5.404;2023-11-21T12:20:30;10.02;;;5.28;;
16784;SDS011;8509;52.178;5.404;2023-11-21T12:22:57;10.35;;;6.15;;
16784;SDS011;8509;52.178;5.404;2023-11-21T12:25:25;9.52;;;4.60;;
16784;SDS011;8509;52.178;5.404;2023-11-21T12:27:56;16.38;;;5.65;;
16784;SDS011;8509;52.178;5.404;2023-11-21T12:30:23;10.80;;;4.15;;
16784;SDS011;8509;52.178;5.404;2023-11-21T12:32:54;8.93;;;4.25;;
16784;SDS011;8509;52.178;5.404;2023-11-21T12:35:26;8.52;;;3.58;;
16784;SDS011;8509;52.178;5.404;2023-11-21T12:37:59;7.78;;;3.00;;
16784;SDS011;8509;52.178;5.404;2023-11-21T12:40:25;9.65;;;4.05;;
16784;SDS011;8509;52.178;5.404;2023-11-21T12:42:53;6.20;;;3.00;;
16784;SDS011;8509;52.178;5.404;2023-11-21T12:45:25;7.55;;;3.10;;
16784;SDS011;8509;52.178;5.404;2023-11-21T12:48:01;5.07;;;2.80;;
16784;SDS011;8509;52.178;5.404;2023-11-21T12:50:32;6.18;;;3.22;;
16784;SDS011;8509;52.178;5.404;2023-11-21T12:53:08;4.60;;;2.63;;
16784;SDS011;8509;52.178;5.404;2023-11-21T12:55:37;5.63;;;3.25;;
16784;SDS011;8509;52.178;5.404;2023-11-21T12:58:04;6.93;;;2.83;;
16784;SDS011;8509;52.178;5.404;2023-11-21T13:00:34;3.88;;;1.92;;
16784;SDS011;8509;52.178;5.404;2023-11-21T13:03:05;4.63;;;2.47;;
16784;SDS011;8509;52.178;5.404;2023-11-21T13:05:49;7.40;;;3.13;;
16784;SDS011;8509;52.178;5.404;2023-11-21T13:08:16;4.80;;;2.65;;
16784;SDS011;8509;52.178;5.404;2023-11-21T13:10:46;4.45;;;2.38;;
16784;SDS011;8509;52.178;5.404;2023-11-21T13:13:15;4.15;;;2.13;;
16784;SDS011;8509;52.178;5.404;2023-11-21T13:15:50;4.20;;;1.45;;
16784;SDS011;8509;52.178;5.404;2023-11-21T13:18:25;2.95;;;1.60;;
16784;SDS011;8509;52.178;5.404;2023-11-21T13:20:55;5.60;;;1.75;;
16784;SDS011;8509;52.178;5.404;2023-11-21T13:23:34;4.72;;;2.20;;
16784;SDS011;8509;52.178;5.404;2023-11-21T13:26:01;5.07;;;2.25;;
16784;SDS011;8509;52.178;5.404;2023-11-21T13:28:29;4.05;;;1.50;;
16784;SDS011;8509;52.178;5.404;2023-11-21T13:30:58;4.88;;;2.28;;
16784;SDS011;8509;52.178;5.404;2023-11-21T13:33:28;2.22;;;1.60;;
16784;SDS011;8509;52.178;5.404;2023-11-21T13:35:54;4.72;;;1.35;;
16784;SDS011;8509;52.178;5.404;2023-11-21T13:38:21;3.17;;;1.67;;
16784;SDS011;8509;52.178;5.404;2023-11-21T13:40:49;1.42;;;1.27;;
16784;SDS011;8509;52.178;5.404;2023-11-21T13:43:18;4.65;;;1.70;;
16784;SDS011;8509;52.178;5.404;2023-11-21T13:45:46;3.55;;;1.85;;
16784;SDS011;8509;52.178;5.404;2023-11-21T13:48:24;6.82;;;2.38;;
16784;SDS011;8509;52.178;5.404;2023-11-21T13:50:56;6.20;;;2.72;;
16784;SDS011;8509;52.178;5.404;2023-11-21T13:53:33;5.15;;;2.33;;
16784;SDS011;8509;52.178;5.404;2023-11-21T13:56:02;7.20;;;3.60;;
16784;SDS011;8509;52.178;5.404;2023-11-21T13:58:28;6.43;;;3.33;;
16784;SDS011;8509;52.178;5.404;2023-11-21T14:01:21;8.63;;;3.38;;
16784;SDS011;8509;52.178;5.404;2023-11-21T14:03:54;7.00;;;3.60;;
16784;SDS011;8509;52.178;5.404;2023-11-21T14:06:27;8.00;;;3.42;;
16784;SDS011;8509;52.178;5.404;2023-11-21T14:08:59;6.70;;;3.13;;
16784;SDS011;8509;52.178;5.404;2023-11-21T14:11:30;5.95;;;2.28;;
16784;SDS011;8509;52.178;5.404;2023-11-21T14:13:55;5.78;;;3.08;;
16784;SDS011;8509;52.178;5.404;2023-11-21T14:16:25;7.75;;;4.05;;
16784;SDS011;8509;52.178;5.404;2023-11-21T14:18:50;9.82;;;4.00;;
16784;SDS011;8509;52.178;5.404;2023-11-21T14:21:26;10.57;;;4.60;;
16784;SDS011;8509;52.178;5.404;2023-11-21T14:23:52;7.35;;;3.58;;
16784;SDS011;8509;52.178;5.404;2023-11-21T14:26:20;10.93;;;4.28;;
16784;SDS011;8509;52.178;5.404;2023-11-21T14:28:46;7.65;;;4.00;;
16784;SDS011;8509;52.178;5.404;2023-11-21T14:31:14;7.88;;;3.70;;
16784;SDS011;8509;52.178;5.404;2023-11-21T14:33:42;11.75;;;5.13;;
16784;SDS011;8509;52.178;5.404;2023-11-21T14:36:09;8.50;;;3.72;;
16784;SDS011;8509;52.178;5.404;2023-11-21T14:38:38;9.18;;;4.20;;
16784;SDS011;8509;52.178;5.404;2023-11-21T14:41:04;10.90;;;4.43;;
16784;SDS011;8509;52.178;5.404;2023-11-21T14:43:33;10.23;;;3.85;;
16784;SDS011;8509;52.178;5.404;2023-11-21T14:46:00;8.93;;;4.57;;
16784;SDS011;8509;52.178;5.404;2023-11-21T14:48:28;9.88;;;4.90;;
16784;SDS011;8509;52.178;5.404;2023-11-21T14:51:07;9.38;;;4.47;;
16784;SDS011;8509;52.178;5.404;2023-11-21T14:53:36;13.93;;;4.53;;
16784;SDS011;8509;52.178;5.404;2023-11-21T14:56:09;10.43;;;4.63;;
16784;SDS011;8509;52.178;5.404;2023-11-21T14:58:35;11.15;;;5.38;;
16784;SDS011;8509;52.178;5.404;2023-11-21T15:01:03;9.50;;;4.65;;
16784;SDS011;8509;52.178;5.404;2023-11-21T15:03:29;11.98;;;5.13;;
16784;SDS011;8509;52.178;5.404;2023-11-21T15:06:01;8.55;;;3.50;;
16784;SDS011;8509;52.178;5.404;2023-11-21T15:08:50;10.20;;;5.35;;
16784;SDS011;8509;52.178;5.404;2023-11-21T15:11:31;9.40;;;5.55;;
16784;SDS011;8509;52.178;5.404;2023-11-21T15:13:58;9.85;;;6.05;;
16784;SDS011;8509;52.178;5.404;2023-11-21T15:16:25;11.65;;;6.10;;
16784;SDS011;8509;52.178;5.404;2023-11-21T15:18:54;8.65;;;5.30;;
16784;SDS011;8509;52.178;5.404;2023-11-21T15:21:20;9.80;;;4.13;;
16784;SDS011;8509;52.178;5.404;2023-11-21T15:23:47;8.32;;;4.57;;
16784;SDS011;8509;52.178;5.404;2023-11-21T15:26:13;6.97;;;4.18;;
16784;SDS011;8509;52.178;5.404;2023-11-21T15:28:39;5.50;;;3.30;;